sensor_id;sensor_type;location;lat;lon;timestamp;pressure;altitude;pressure_sealevel;temperature;humidity
70323;BME280;57735;56.264;43.898;2023-02-28T00:00:54;100755.13;;;-6.91;65.10
70323;BME280;57735;56.264;43.898;2023-02-28T00:03:24;100770.84;;;-7.00;65.37
70323;BME280;57735;56.264;43.898;2023-02-28T00:05:55;100753.75;;;-7.07;65.65
70323;BME280;57735;56.264;43.898;2023-02-28T00:08:25;100748.66;;;-7.10;65.83
70323;BME280;57735;56.264;43.898;2023-02-28T00:11:00;100757.41;;;-7.16;65.82
70323;BME280;57735;56.264;43.898;2023-02-28T00:13:31;100746.19;;;-7.16;66.08
70323;BME280;57735;56.264;43.898;2023-02-28T00:16:05;100753.06;;;-7.15;66.19
70323;BME280;57735;56.264;43.898;2023-02-28T00:18:36;100769.44;;;-7.13;66.10
70323;BME280;57735;56.264;43.898;2023-02-28T00:21:07;100757.25;;;-7.08;66.41
70323;BME280;57735;56.264;43.898;2023-02-28T00:23:38;100755.44;;;-7.05;66.19
70323;BME280;57735;56.264;43.898;2023-02-28T00:26:11;100745.84;;;-7.01;66.14
70323;BME280;57735;56.264;43.898;2023-02-28T00:28:41;100742.38;;;-7.01;66.42
70323;BME280;57735;56.264;43.898;2023-02-28T00:31:12;100747.69;;;-7.06;66.63
70323;BME280;57735;56.264;43.898;2023-02-28T00:33:46;100745.16;;;-7.09;66.91
70323;BME280;57735;56.264;43.898;2023-02-28T00:36:16;100728.00;;;-7.13;67.06
70323;BME280;57735;56.264;43.898;2023-02-28T00:38:47;100721.16;;;-7.17;67.04
70323;BME280;57735;56.264;43.898;2023-02-28T00:41:17;100717.75;;;-7.19;67.31
70323;BME280;57735;56.264;43.898;2023-02-28T00:43:48;100717.81;;;-7.21;67.72
70323;BME280;57735;56.264;43.898;2023-02-28T00:46:18;100712.56;;;-7.19;67.67
70323;BME280;57735;56.264;43.898;2023-02-28T00:48:49;100704.75;;;-7.16;68.09
70323;BME280;57735;56.264;43.898;2023-02-28T00:51:19;100714.22;;;-7.15;67.86
70323;BME280;57735;56.264;43.898;2023-02-28T00:53:50;100690.03;;;-7.14;67.92
70323;BME280;57735;56.264;43.898;2023-02-28T00:56:21;100697.81;;;-7.16;67.93
70323;BME280;57735;56.264;43.898;2023-02-28T00:58:51;100697.81;;;-7.16;67.96
70323;BME280;57735;56.264;43.898;2023-02-28T01:01:22;100691.78;;;-7.16;67.79
70323;BME280;57735;56.264;43.898;2023-02-28T01:03:52;100697.84;;;-7.17;68.18
70323;BME280;57735;56.264;43.898;2023-02-28T01:06:23;100686.84;;;-7.25;68.19
70323;BME280;57735;56.264;43.898;2023-02-28T01:08:53;100679.03;;;-7.24;68.31
70323;BME280;57735;56.264;43.898;2023-02-28T01:11:24;100679.88;;;-7.23;68.28
70323;BME280;57735;56.264;43.898;2023-02-28T01:13:54;100668.72;;;-7.25;68.36
70323;BME280;57735;56.264;43.898;2023-02-28T01:16:25;100659.28;;;-7.29;68.23
70323;BME280;57735;56.264;43.898;2023-02-28T01:18:55;100657.63;;;-7.32;68.26
70323;BME280;57735;56.264;43.898;2023-02-28T01:21:26;100650.06;;;-7.40;68.39
70323;BME280;57735;56.264;43.898;2023-02-28T01:23:57;100651.91;;;-7.46;68.68
70323;BME280;57735;56.264;43.898;2023-02-28T01:26:28;100638.19;;;-7.50;68.80
70323;BME280;57735;56.264;43.898;2023-02-28T01:28:58;100648.56;;;-7.51;68.89
70323;BME280;57735;56.264;43.898;2023-02-28T01:31:29;100649.41;;;-7.51;69.17
70323;BME280;57735;56.264;43.898;2023-02-28T01:33:59;100642.53;;;-7.52;68.90
70323;BME280;57735;56.264;43.898;2023-02-28T01:36:30;100646.00;;;-7.53;69.14
70323;BME280;57735;56.264;43.898;2023-02-28T01:39:00;100650.41;;;-7.55;69.00
70323;BME280;57735;56.264;43.898;2023-02-28T01:41:32;100658.16;;;-7.55;69.14
70323;BME280;57735;56.264;43.898;2023-02-28T01:44:04;100653.88;;;-7.56;69.05
70323;BME280;57735;56.264;43.898;2023-02-28T01:46:35;100640.09;;;-7.58;69.11
70323;BME280;57735;56.264;43.898;2023-02-28T01:49:08;100649.66;;;-7.61;69.27
70323;BME280;57735;56.264;43.898;2023-02-28T01:51:43;100641.03;;;-7.62;69.49
70323;BME280;57735;56.264;43.898;2023-02-28T01:54:18;100643.63;;;-7.62;69.37
70323;BME280;57735;56.264;43.898;2023-02-28T01:56:58;100653.09;;;-7.61;69.43
70323;BME280;57735;56.264;43.898;2023-02-28T01:59:33;100634.19;;;-7.64;69.22
70323;BME280;57735;56.264;43.898;2023-02-28T02:02:05;100635.09;;;-7.67;69.37
70323;BME280;57735;56.264;43.898;2023-02-28T02:04:39;100623.97;;;-7.70;69.46
70323;BME280;57735;56.264;43.898;2023-02-28T02:07:12;100618.84;;;-7.72;69.57
70323;BME280;57735;56.264;43.898;2023-02-28T02:09:43;100607.63;;;-7.71;69.61
70323;BME280;57735;56.264;43.898;2023-02-28T02:12:27;100610.22;;;-7.71;69.51
70323;BME280;57735;56.264;43.898;2023-02-28T02:17:44;100598.94;;;-7.70;69.85
70323;BME280;57735;56.264;43.898;2023-02-28T02:20:24;100604.13;;;-7.70;69.79
70323;BME280;57735;56.264;43.898;2023-02-28T02:25:52;100582.63;;;-7.72;69.94
70323;BME280;57735;56.264;43.898;2023-02-28T02:31:18;100569.56;;;-7.67;69.71
70323;BME280;57735;56.264;43.898;2023-02-28T02:34:58;100566.06;;;-7.65;69.98
70323;BME280;57735;56.264;43.898;2023-02-28T02:39:35;100549.66;;;-7.64;70.07
70323;BME280;57735;56.264;43.898;2023-02-28T02:42:13;100550.47;;;-7.62;69.80
70323;BME280;57735;56.264;43.898;2023-02-28T02:47:42;100550.41;;;-7.59;69.85
70323;BME280;57735;56.264;43.898;2023-02-28T02:50:15;100534.91;;;-7.60;69.75
70323;BME280;57735;56.264;43.898;2023-02-28T02:52:49;100532.31;;;-7.60;69.64
70323;BME280;57735;56.264;43.898;2023-02-28T02:55:21;100514.22;;;-7.60;69.44
70323;BME280;57735;56.264;43.898;2023-02-28T02:57:59;100509.94;;;-7.63;69.31
70323;BME280;57735;56.264;43.898;2023-02-28T03:00:34;100516.97;;;-7.68;69.29
70323;BME280;57735;56.264;43.898;2023-02-28T03:03:06;100505.75;;;-7.68;69.36
70323;BME280;57735;56.264;43.898;2023-02-28T03:05:41;100500.69;;;-7.71;69.24
70323;BME280;57735;56.264;43.898;2023-02-28T03:08:13;100488.69;;;-7.76;69.18
70323;BME280;57735;56.264;43.898;2023-02-28T03:10:45;100487.84;;;-7.76;69.21
70323;BME280;57735;56.264;43.898;2023-02-28T03:13:33;100473.28;;;-7.80;69.16
70323;BME280;57735;56.264;43.898;2023-02-28T03:18:47;100456.13;;;-7.84;69.09
70323;BME280;57735;56.264;43.898;2023-02-28T03:24:39;100426.81;;;-7.85;69.33
70323;BME280;57735;56.264;43.898;2023-02-28T03:26:55;100410.53;;;-7.88;69.33
70323;BME280;57735;56.264;43.898;2023-02-28T03:29:33;100402.81;;;-7.90;69.49
70323;BME280;57735;56.264;43.898;2023-02-28T03:34:53;100389.03;;;-7.90;69.74
70323;BME280;57735;56.264;43.898;2023-02-28T03:37:27;100386.50;;;-7.93;69.67
70323;BME280;57735;56.264;43.898;2023-02-28T03:40:01;100382.31;;;-7.97;69.67
70323;BME280;57735;56.264;43.898;2023-02-28T03:42:34;100386.59;;;-7.96;69.88
70323;BME280;57735;56.264;43.898;2023-02-28T03:45:19;100383.16;;;-7.97;69.94
70323;BME280;57735;56.264;43.898;2023-02-28T03:47:53;100377.16;;;-7.99;69.86
70323;BME280;57735;56.264;43.898;2023-02-28T03:50:32;100377.09;;;-7.96;70.00
70323;BME280;57735;56.264;43.898;2023-02-28T03:53:39;100369.28;;;-7.94;69.75
70323;BME280;57735;56.264;43.898;2023-02-28T03:56:07;100364.13;;;-7.94;69.99
70323;BME280;57735;56.264;43.898;2023-02-28T03:58:53;100358.00;;;-7.90;69.59
70323;BME280;57735;56.264;43.898;2023-02-28T04:01:28;100355.41;;;-7.90;69.60
70323;BME280;57735;56.264;43.898;2023-02-28T04:04:01;100346.84;;;-7.92;69.43
70323;BME280;57735;56.264;43.898;2023-02-28T04:06:32;100350.22;;;-7.90;69.63
70323;BME280;57735;56.264;43.898;2023-02-28T04:09:04;100328.63;;;-7.88;69.19
70323;BME280;57735;56.264;43.898;2023-02-28T04:11:36;100325.13;;;-7.87;69.22
70323;BME280;57735;56.264;43.898;2023-02-28T04:14:10;100312.13;;;-7.85;68.97
70323;BME280;57735;56.264;43.898;2023-02-28T04:16:41;100300.94;;;-7.86;69.11
70323;BME280;57735;56.264;43.898;2023-02-28T04:19:12;100293.91;;;-7.81;68.93
70323;BME280;57735;56.264;43.898;2023-02-28T04:21:47;100293.00;;;-7.78;68.79
70323;BME280;57735;56.264;43.898;2023-02-28T04:24:19;100284.34;;;-7.77;68.33
70323;BME280;57735;56.264;43.898;2023-02-28T04:26:51;100292.00;;;-7.72;68.02
70323;BME280;57735;56.264;43.898;2023-02-28T04:29:26;100272.06;;;-7.70;68.17
70323;BME280;57735;56.264;43.898;2023-02-28T04:31:57;100262.44;;;-7.65;68.26
70323;BME280;57735;56.264;43.898;2023-02-28T04:34:29;100251.09;;;-7.60;68.04
70323;BME280;57735;56.264;43.898;2023-02-28T04:37:00;100250.22;;;-7.59;67.47
70323;BME280;57735;56.264;43.898;2023-02-28T04:39:33;100249.13;;;-7.52;67.25
70323;BME280;57735;56.264;43.898;2023-02-28T04:42:04;100253.28;;;-7.46;67.13
70323;BME280;57735;56.264;43.898;2023-02-28T04:44:35;100233.25;;;-7.40;66.77
70323;BME280;57735;56.264;43.898;2023-02-28T04:47:05;100236.53;;;-7.34;66.53
70323;BME280;57735;56.264;43.898;2023-02-28T04:49:36;100233.75;;;-7.27;66.04
70323;BME280;57735;56.264;43.898;2023-02-28T04:52:07;100242.06;;;-7.17;65.80
70323;BME280;57735;56.264;43.898;2023-02-28T04:54:37;100216.88;;;-7.12;65.70
70323;BME280;57735;56.264;43.898;2023-02-28T04:57:09;100219.13;;;-7.01;65.30
70323;BME280;57735;56.264;43.898;2023-02-28T04:59:39;100211.19;;;-6.95;64.98
70323;BME280;57735;56.264;43.898;2023-02-28T05:02:10;100207.56;;;-6.90;64.70
70323;BME280;57735;56.264;43.898;2023-02-28T05:04:40;100223.59;;;-6.79;64.51
70323;BME280;57735;56.264;43.898;2023-02-28T05:07:11;100218.09;;;-6.70;64.23
70323;BME280;57735;56.264;43.898;2023-02-28T05:09:41;100233.66;;;-6.70;63.38
70323;BME280;57735;56.264;43.898;2023-02-28T05:12:12;100207.56;;;-6.63;63.21
70323;BME280;57735;56.264;43.898;2023-02-28T05:14:42;100233.44;;;-6.62;63.07
70323;BME280;57735;56.264;43.898;2023-02-28T05:17:14;100202.97;;;-6.55;62.45
70323;BME280;57735;56.264;43.898;2023-02-28T05:19:44;100214.41;;;-6.36;62.23
70323;BME280;57735;56.264;43.898;2023-02-28T05:22:15;100210.75;;;-6.30;62.06
70323;BME280;57735;56.264;43.898;2023-02-28T05:24:49;100193.34;;;-6.27;61.79
70323;BME280;57735;56.264;43.898;2023-02-28T05:27:19;100193.03;;;-6.18;61.26
70323;BME280;57735;56.264;43.898;2023-02-28T05:29:50;100190.19;;;-6.10;61.27
70323;BME280;57735;56.264;43.898;2023-02-28T05:32:20;100163.75;;;-5.96;61.09
70323;BME280;57735;56.264;43.898;2023-02-28T05:34:51;100166.69;;;-5.84;60.33
70323;BME280;57735;56.264;43.898;2023-02-28T05:37:21;100156.72;;;-5.71;60.15
70323;BME280;57735;56.264;43.898;2023-02-28T05:39:52;100154.19;;;-5.51;59.81
70323;BME280;57735;56.264;43.898;2023-02-28T05:42:23;100141.31;;;-5.31;59.46
70323;BME280;57735;56.264;43.898;2023-02-28T05:44:53;100127.41;;;-5.30;59.06
70323;BME280;57735;56.264;43.898;2023-02-28T05:47:26;100116.41;;;-5.14;59.11
70323;BME280;57735;56.264;43.898;2023-02-28T05:49:57;100102.47;;;-5.34;58.86
70323;BME280;57735;56.264;43.898;2023-02-28T05:52:30;100098.47;;;-5.20;59.64
70323;BME280;57735;56.264;43.898;2023-02-28T05:55:00;100089.84;;;-5.21;59.14
70323;BME280;57735;56.264;43.898;2023-02-28T05:57:31;100096.06;;;-5.25;59.64
70323;BME280;57735;56.264;43.898;2023-02-28T06:00:01;100091.72;;;-5.24;59.66
70323;BME280;57735;56.264;43.898;2023-02-28T06:02:32;100085.63;;;-5.23;59.33
70323;BME280;57735;56.264;43.898;2023-02-28T06:05:08;100059.44;;;-5.19;59.29
70323;BME280;57735;56.264;43.898;2023-02-28T06:07:43;100047.56;;;-5.24;58.48
70323;BME280;57735;56.264;43.898;2023-02-28T06:10:16;100035.47;;;-5.25;58.80
70323;BME280;57735;56.264;43.898;2023-02-28T06:12:47;100045.53;;;-5.18;58.31
70323;BME280;57735;56.264;43.898;2023-02-28T06:15:17;100037.56;;;-5.13;58.49
70323;BME280;57735;56.264;43.898;2023-02-28T06:17:48;100027.66;;;-5.04;58.29
70323;BME280;57735;56.264;43.898;2023-02-28T06:20:18;100015.88;;;-4.92;58.22
70323;BME280;57735;56.264;43.898;2023-02-28T06:22:49;100001.38;;;-4.77;57.52
70323;BME280;57735;56.264;43.898;2023-02-28T06:25:25;100013.94;;;-4.68;57.84
70323;BME280;57735;56.264;43.898;2023-02-28T06:27:56;100003.75;;;-4.52;56.69
70323;BME280;57735;56.264;43.898;2023-02-28T06:30:26;99986.53;;;-4.36;56.05
70323;BME280;57735;56.264;43.898;2023-02-28T06:33:00;99965.34;;;-4.29;55.20
70323;BME280;57735;56.264;43.898;2023-02-28T06:35:30;99957.03;;;-4.18;55.70
70323;BME280;57735;56.264;43.898;2023-02-28T06:38:01;99948.91;;;-4.10;55.57
70323;BME280;57735;56.264;43.898;2023-02-28T06:40:32;99945.78;;;-4.00;55.56
70323;BME280;57735;56.264;43.898;2023-02-28T06:43:07;99926.78;;;-4.02;55.31
70323;BME280;57735;56.264;43.898;2023-02-28T06:45:40;99918.41;;;-3.90;55.63
70323;BME280;57735;56.264;43.898;2023-02-28T06:48:11;99917.63;;;-3.92;55.39
70323;BME280;57735;56.264;43.898;2023-02-28T06:50:41;99902.63;;;-3.87;55.37
70323;BME280;57735;56.264;43.898;2023-02-28T06:53:12;99890.69;;;-3.91;55.30
70323;BME280;57735;56.264;43.898;2023-02-28T06:55:43;99898.81;;;-3.79;55.39
70323;BME280;57735;56.264;43.898;2023-02-28T06:58:13;99879.03;;;-3.83;55.20
70323;BME280;57735;56.264;43.898;2023-02-28T07:00:51;99883.66;;;-3.89;55.30
70323;BME280;57735;56.264;43.898;2023-02-28T07:03:22;99872.97;;;-3.84;55.26
70323;BME280;57735;56.264;43.898;2023-02-28T07:05:53;99867.63;;;-3.81;55.05
70323;BME280;57735;56.264;43.898;2023-02-28T07:08:26;99854.63;;;-3.81;55.27
70323;BME280;57735;56.264;43.898;2023-02-28T07:10:57;99853.06;;;-3.68;55.28
70323;BME280;57735;56.264;43.898;2023-02-28T07:13:28;99836.47;;;-3.82;54.65
70323;BME280;57735;56.264;43.898;2023-02-28T07:16:03;99845.38;;;-3.87;54.57
70323;BME280;57735;56.264;43.898;2023-02-28T07:18:34;99828.28;;;-3.75;54.94
70323;BME280;57735;56.264;43.898;2023-02-28T07:21:05;99799.00;;;-3.63;54.52
70323;BME280;57735;56.264;43.898;2023-02-28T07:23:37;99801.81;;;-3.50;54.03
70323;BME280;57735;56.264;43.898;2023-02-28T07:26:15;99795.13;;;-3.38;53.76
70323;BME280;57735;56.264;43.898;2023-02-28T07:28:49;99793.78;;;-3.30;53.09
70323;BME280;57735;56.264;43.898;2023-02-28T07:31:20;99788.53;;;-3.12;52.52
70323;BME280;57735;56.264;43.898;2023-02-28T07:33:50;99793.84;;;-2.98;52.30
70323;BME280;57735;56.264;43.898;2023-02-28T07:36:21;99786.28;;;-2.87;52.18
70323;BME280;57735;56.264;43.898;2023-02-28T07:38:51;99794.53;;;-2.95;51.72
70323;BME280;57735;56.264;43.898;2023-02-28T07:41:25;99787.63;;;-2.80;51.75
70323;BME280;57735;56.264;43.898;2023-02-28T07:43:57;99764.75;;;-2.75;51.15
70323;BME280;57735;56.264;43.898;2023-02-28T07:46:29;99750.13;;;-2.93;51.42
70323;BME280;57735;56.264;43.898;2023-02-28T07:49:05;99759.94;;;-2.83;51.34
70323;BME280;57735;56.264;43.898;2023-02-28T07:51:38;99746.38;;;-2.58;50.95
70323;BME280;57735;56.264;43.898;2023-02-28T07:54:11;99756.50;;;-2.22;50.62
70323;BME280;57735;56.264;43.898;2023-02-28T07:56:42;99750.59;;;-1.81;50.32
70323;BME280;57735;56.264;43.898;2023-02-28T07:59:13;99739.72;;;-1.73;49.58
70323;BME280;57735;56.264;43.898;2023-02-28T08:01:43;99739.13;;;-1.79;49.77
70323;BME280;57735;56.264;43.898;2023-02-28T08:04:14;99748.47;;;-1.89;49.95
70323;BME280;57735;56.264;43.898;2023-02-28T08:06:45;99738.94;;;-1.90;49.90
70323;BME280;57735;56.264;43.898;2023-02-28T08:09:16;99742.59;;;-1.78;50.05
70323;BME280;57735;56.264;43.898;2023-02-28T08:11:46;99741.84;;;-1.80;49.61
70323;BME280;57735;56.264;43.898;2023-02-28T08:14:20;99748.41;;;-1.73;50.27
70323;BME280;57735;56.264;43.898;2023-02-28T08:16:50;99722.44;;;-1.76;50.22
70323;BME280;57735;56.264;43.898;2023-02-28T08:19:21;99729.44;;;-1.91;50.70
70323;BME280;57735;56.264;43.898;2023-02-28T08:21:52;99760.56;;;-2.02;50.74
70323;BME280;57735;56.264;43.898;2023-02-28T08:24:24;99710.38;;;-2.07;50.98
70323;BME280;57735;56.264;43.898;2023-02-28T08:26:56;99750.81;;;-2.14;51.63
70323;BME280;57735;56.264;43.898;2023-02-28T08:29:26;99745.75;;;-2.01;52.24
70323;BME280;57735;56.264;43.898;2023-02-28T08:31:57;99728.56;;;-2.05;52.32
70323;BME280;57735;56.264;43.898;2023-02-28T08:34:28;99724.38;;;-2.08;52.40
70323;BME280;57735;56.264;43.898;2023-02-28T08:36:59;99722.34;;;-2.03;52.40
70323;BME280;57735;56.264;43.898;2023-02-28T08:39:30;99734.09;;;-1.96;52.38
70323;BME280;57735;56.264;43.898;2023-02-28T08:42:03;99729.97;;;-2.00;51.99
70323;BME280;57735;56.264;43.898;2023-02-28T08:44:34;99722.50;;;-2.06;52.55
70323;BME280;57735;56.264;43.898;2023-02-28T08:47:05;99724.19;;;-2.05;52.09
70323;BME280;57735;56.264;43.898;2023-02-28T08:49:36;99703.31;;;-2.05;52.62
70323;BME280;57735;56.264;43.898;2023-02-28T08:52:07;99717.19;;;-2.04;52.58
70323;BME280;57735;56.264;43.898;2023-02-28T08:54:41;99718.00;;;-2.18;53.37
70323;BME280;57735;56.264;43.898;2023-02-28T08:57:12;99706.59;;;-2.31;53.61
70323;BME280;57735;56.264;43.898;2023-02-28T08:59:43;99704.69;;;-2.43;54.63
70323;BME280;57735;56.264;43.898;2023-02-28T09:02:14;99714.59;;;-2.34;55.28
70323;BME280;57735;56.264;43.898;2023-02-28T09:04:46;99700.81;;;-2.36;55.20
70323;BME280;57735;56.264;43.898;2023-02-28T09:07:17;99689.66;;;-2.24;54.68
70323;BME280;57735;56.264;43.898;2023-02-28T09:09:50;99689.84;;;-2.13;54.15
70323;BME280;57735;56.264;43.898;2023-02-28T09:12:28;99689.50;;;-2.07;53.92
70323;BME280;57735;56.264;43.898;2023-02-28T09:15:04;99688.19;;;-2.00;53.62
70323;BME280;57735;56.264;43.898;2023-02-28T09:17:35;99686.47;;;-2.15;54.06
70323;BME280;57735;56.264;43.898;2023-02-28T09:20:06;99677.88;;;-2.31;54.33
70323;BME280;57735;56.264;43.898;2023-02-28T09:22:37;99679.97;;;-2.22;54.64
70323;BME280;57735;56.264;43.898;2023-02-28T09:25:07;99686.47;;;-2.29;54.49
70323;BME280;57735;56.264;43.898;2023-02-28T09:27:38;99683.13;;;-2.17;54.07
70323;BME280;57735;56.264;43.898;2023-02-28T09:30:10;99679.22;;;-2.24;54.34
70323;BME280;57735;56.264;43.898;2023-02-28T09:32:42;99670.44;;;-2.23;54.58
70323;BME280;57735;56.264;43.898;2023-02-28T09:35:13;99685.94;;;-2.20;54.86
70323;BME280;57735;56.264;43.898;2023-02-28T09:37:47;99676.44;;;-2.07;54.49
70323;BME280;57735;56.264;43.898;2023-02-28T09:40:20;99676.25;;;-2.04;54.51
70323;BME280;57735;56.264;43.898;2023-02-28T09:42:53;99684.28;;;-2.07;55.50
70323;BME280;57735;56.264;43.898;2023-02-28T09:45:35;99676.53;;;-2.08;55.36
70323;BME280;57735;56.264;43.898;2023-02-28T09:48:10;99655.31;;;-2.32;56.46
70323;BME280;57735;56.264;43.898;2023-02-28T09:50:52;99672.19;;;-2.38;57.48
70323;BME280;57735;56.264;43.898;2023-02-28T09:53:26;99660.22;;;-2.56;57.98
70323;BME280;57735;56.264;43.898;2023-02-28T09:55:58;99663.66;;;-2.56;58.19
70323;BME280;57735;56.264;43.898;2023-02-28T10:01:11;99663.41;;;-2.67;59.29
70323;BME280;57735;56.264;43.898;2023-02-28T10:03:55;99670.53;;;-2.69;59.16
70323;BME280;57735;56.264;43.898;2023-02-28T10:06:28;99671.16;;;-2.65;59.69
70323;BME280;57735;56.264;43.898;2023-02-28T10:09:07;99660.00;;;-2.83;59.95
70323;BME280;57735;56.264;43.898;2023-02-28T10:11:43;99666.91;;;-2.82;61.07
70323;BME280;57735;56.264;43.898;2023-02-28T10:14:18;99666.06;;;-2.83;60.91
70323;BME280;57735;56.264;43.898;2023-02-28T10:16:53;99664.31;;;-2.82;61.23
70323;BME280;57735;56.264;43.898;2023-02-28T10:19:27;99644.81;;;-2.91;61.61
70323;BME280;57735;56.264;43.898;2023-02-28T10:22:13;99656.34;;;-2.95;61.83
70323;BME280;57735;56.264;43.898;2023-02-28T10:24:46;99639.09;;;-2.97;62.82
70323;BME280;57735;56.264;43.898;2023-02-28T10:27:20;99638.44;;;-3.01;62.56
70323;BME280;57735;56.264;43.898;2023-02-28T10:30:00;99642.16;;;-3.05;62.18
70323;BME280;57735;56.264;43.898;2023-02-28T10:32:32;99632.03;;;-2.95;62.24
70323;BME280;57735;56.264;43.898;2023-02-28T10:37:37;99628.53;;;-2.80;62.12
70323;BME280;57735;56.264;43.898;2023-02-28T10:43:18;99628.38;;;-2.77;63.03
70323;BME280;57735;56.264;43.898;2023-02-28T10:45:36;99626.69;;;-2.78;63.29
70323;BME280;57735;56.264;43.898;2023-02-28T10:50:45;99618.31;;;-2.53;63.58
70323;BME280;57735;56.264;43.898;2023-02-28T10:56:02;99611.16;;;-2.35;63.30
70323;BME280;57735;56.264;43.898;2023-02-28T11:03:56;99587.78;;;-2.67;65.49
70323;BME280;57735;56.264;43.898;2023-02-28T11:06:32;99574.84;;;-2.68;65.76
70323;BME280;57735;56.264;43.898;2023-02-28T11:09:15;99581.44;;;-2.77;66.32
70323;BME280;57735;56.264;43.898;2023-02-28T11:11:48;99575.88;;;-2.71;66.07
70323;BME280;57735;56.264;43.898;2023-02-28T11:14:26;99572.88;;;-2.65;66.12
70323;BME280;57735;56.264;43.898;2023-02-28T11:17:02;99572.19;;;-2.53;65.85
70323;BME280;57735;56.264;43.898;2023-02-28T11:19:47;99562.75;;;-2.55;66.74
70323;BME280;57735;56.264;43.898;2023-02-28T11:22:21;99576.06;;;-2.60;67.12
70323;BME280;57735;56.264;43.898;2023-02-28T11:24:55;99576.72;;;-2.56;67.67
70323;BME280;57735;56.264;43.898;2023-02-28T11:29:57;99582.22;;;-2.47;68.28
70323;BME280;57735;56.264;43.898;2023-02-28T11:32:29;99568.91;;;-2.42;68.14
70323;BME280;57735;56.264;43.898;2023-02-28T11:35:13;99573.66;;;-2.49;68.51
70323;BME280;57735;56.264;43.898;2023-02-28T11:37:44;99572.19;;;-2.53;68.97
70323;BME280;57735;56.264;43.898;2023-02-28T11:40:17;99571.19;;;-2.66;69.71
70323;BME280;57735;56.264;43.898;2023-02-28T11:46:16;99556.97;;;-2.60;69.89
70323;BME280;57735;56.264;43.898;2023-02-28T11:48:41;99556.69;;;-2.56;69.43
70323;BME280;57735;56.264;43.898;2023-02-28T11:51:21;99567.81;;;-2.52;69.54
70323;BME280;57735;56.264;43.898;2023-02-28T11:56:47;99552.03;;;-2.51;69.40
70323;BME280;57735;56.264;43.898;2023-02-28T12:02:23;99557.81;;;-2.60;69.73
70323;BME280;57735;56.264;43.898;2023-02-28T12:10:23;99531.91;;;-2.63;71.55
70323;BME280;57735;56.264;43.898;2023-02-28T12:12:58;99537.97;;;-2.62;71.83
70323;BME280;57735;56.264;43.898;2023-02-28T12:15:47;99530.22;;;-2.64;72.02
70323;BME280;57735;56.264;43.898;2023-02-28T12:29:25;99508.25;;;-2.60;72.88
70323;BME280;57735;56.264;43.898;2023-02-28T12:32:07;99511.50;;;-2.56;72.69
70323;BME280;57735;56.264;43.898;2023-02-28T12:34:58;99512.63;;;-2.60;72.48
70323;BME280;57735;56.264;43.898;2023-02-28T12:37:36;99503.78;;;-2.58;72.23
70323;BME280;57735;56.264;43.898;2023-02-28T12:40:19;99490.16;;;-2.63;72.58
70323;BME280;57735;56.264;43.898;2023-02-28T12:43:03;99490.63;;;-2.42;72.27
70323;BME280;57735;56.264;43.898;2023-02-28T12:45:56;99479.31;;;-2.14;70.86
70323;BME280;57735;56.264;43.898;2023-02-28T12:48:31;99468.22;;;-2.18;71.12
70323;BME280;57735;56.264;43.898;2023-02-28T12:51:06;99476.34;;;-2.08;70.60
70323;BME280;57735;56.264;43.898;2023-02-28T12:56:19;99466.97;;;-1.98;70.47
70323;BME280;57735;56.264;43.898;2023-02-28T12:58:56;99465.66;;;-1.91;69.94
70323;BME280;57735;56.264;43.898;2023-02-28T13:09:51;99456.25;;;-1.93;70.11
70323;BME280;57735;56.264;43.898;2023-02-28T13:12:23;99458.38;;;-1.86;70.18
70323;BME280;57735;56.264;43.898;2023-02-28T13:15:27;99450.88;;;-1.78;70.98
70323;BME280;57735;56.264;43.898;2023-02-28T13:17:55;99456.34;;;-1.95;71.37
70323;BME280;57735;56.264;43.898;2023-02-28T13:20:34;99452.16;;;-1.97;71.76
70323;BME280;57735;56.264;43.898;2023-02-28T13:23:16;99463.34;;;-1.95;71.35
70323;BME280;57735;56.264;43.898;2023-02-28T13:25:55;99453.91;;;-1.98;71.50
70323;BME280;57735;56.264;43.898;2023-02-28T13:28:56;99447.63;;;-2.08;72.28
70323;BME280;57735;56.264;43.898;2023-02-28T13:31:23;99453.31;;;-2.16;72.28
70323;BME280;57735;56.264;43.898;2023-02-28T13:36:29;99446.97;;;-2.12;72.28
70323;BME280;57735;56.264;43.898;2023-02-28T13:39:44;99437.56;;;-2.14;72.43
70323;BME280;57735;56.264;43.898;2023-02-28T13:41:52;99448.59;;;-2.23;73.11
70323;BME280;57735;56.264;43.898;2023-02-28T13:44:23;99439.53;;;-2.32;73.48
70323;BME280;57735;56.264;43.898;2023-02-28T13:49:27;99443.50;;;-2.39;73.94
70323;BME280;57735;56.264;43.898;2023-02-28T13:59:46;99434.00;;;-2.68;74.31
70323;BME280;57735;56.264;43.898;2023-02-28T14:05:00;99426.25;;;-2.84;75.09
70323;BME280;57735;56.264;43.898;2023-02-28T14:07:32;99427.75;;;-2.94;75.29
70323;BME280;57735;56.264;43.898;2023-02-28T14:10:04;99426.34;;;-3.00;75.61
70323;BME280;57735;56.264;43.898;2023-02-28T14:18:11;99427.19;;;-2.99;75.55
70323;BME280;57735;56.264;43.898;2023-02-28T14:20:44;99406.53;;;-3.02;75.51
70323;BME280;57735;56.264;43.898;2023-02-28T14:26:10;99419.84;;;-3.07;75.91
70323;BME280;57735;56.264;43.898;2023-02-28T14:28:48;99412.75;;;-3.05;76.30
70323;BME280;57735;56.264;43.898;2023-02-28T14:36:57;99395.91;;;-3.13;76.59
70323;BME280;57735;56.264;43.898;2023-02-28T14:39:28;99393.47;;;-3.17;76.53
70323;BME280;57735;56.264;43.898;2023-02-28T14:42:01;99391.63;;;-3.14;76.80
70323;BME280;57735;56.264;43.898;2023-02-28T14:44:37;99394.03;;;-3.11;76.59
70323;BME280;57735;56.264;43.898;2023-02-28T14:47:13;99393.78;;;-3.07;76.86
70323;BME280;57735;56.264;43.898;2023-02-28T14:49:45;99382.41;;;-3.06;76.55
70323;BME280;57735;56.264;43.898;2023-02-28T14:52:22;99382.50;;;-3.07;76.41
70323;BME280;57735;56.264;43.898;2023-02-28T14:54:57;99384.28;;;-3.08;76.67
70323;BME280;57735;56.264;43.898;2023-02-28T14:57:29;99387.81;;;-3.09;76.47
70323;BME280;57735;56.264;43.898;2023-02-28T15:02:33;99384.72;;;-3.01;76.20
70323;BME280;57735;56.264;43.898;2023-02-28T15:07:47;99385.03;;;-3.06;76.33
70323;BME280;57735;56.264;43.898;2023-02-28T15:10:23;99380.66;;;-3.05;76.41
70323;BME280;57735;56.264;43.898;2023-02-28T15:13:02;99377.88;;;-3.02;76.45